Time;durP1;ratioP1;P1;durP2;ratioP2;P2;SDS_P1;SDS_P2;PMS_P1;PMS_P2;Temp;Humidity;BMP_temperature;BMP_pressure;BME280_temperature;BME280_humidity;BME280_pressure;Samples;Min_cycle;Max_cycle;Signal;HPM_P1;HPM_P2
2022/12/11 15:37:30;;;;;;;0.00;0.00;;;2.60;86.90;;;;;;5024833;28;20057;-66
2022/12/11 15:39:59;;;;;;;0.00;0.00;;;2.70;86.90;;;;;;5010168;28;20060;-66
2022/12/11 15:42:40;;;;;;;0.00;0.00;;;2.70;86.90;;;;;;5005227;28;20053;-66
2022/12/11 15:45:13;;;;;;;0.10;0.10;;;2.60;86.90;;;;;;5006945;28;20087;-66
2022/12/11 15:47:39;;;;;;;0.10;0.10;;;2.60;86.90;;;;;;5020481;28;20048;-66
2022/12/11 15:50:11;;;;;;;0.00;0.00;;;2.70;86.90;;;;;;5015745;28;20057;-67
2022/12/11 15:52:36;;;;;;;0.05;0.05;;;2.70;86.90;;;;;;5019591;28;20048;-67
2022/12/11 15:55:03;;;;;;;0.00;0.00;;;2.70;86.80;;;;;;5021240;28;20037;-66
2022/12/11 15:57:29;;;;;;;0.00;0.00;;;2.70;86.70;;;;;;5021549;28;20042;-68
2022/12/11 15:59:55;;;;;;;0.00;0.00;;;2.60;86.70;;;;;;5021007;28;20155;-65
2022/12/11 16:02:23;;;;;;;0.00;0.00;;;2.70;86.70;;;;;;5022853;28;20041;-66
2022/12/11 16:04:49;;;;;;;0.00;0.00;;;2.70;86.80;;;;;;5019055;28;20559;-66
2022/12/11 16:07:23;;;;;;;0.70;0.70;;;2.70;86.80;;;;;;5024637;28;20136;-66
2022/12/11 16:09:49;;;;;;;0.00;0.00;;;2.70;86.90;;;;;;5027697;28;20128;-66
2022/12/11 16:12:15;;;;;;;0.03;0.03;;;2.70;86.70;;;;;;5028003;28;20121;-66
2022/12/11 16:14:41;;;;;;;0.08;0.08;;;2.70;86.60;;;;;;5027537;28;20099;-66
2022/12/11 16:17:08;;;;;;;0.00;0.00;;;2.70;86.60;;;;;;5026893;28;20457;-66
2022/12/11 16:19:35;;;;;;;0.00;0.00;;;2.70;86.70;;;;;;5027072;28;20488;-66
2022/12/11 16:22:01;;;;;;;0.00;0.00;;;2.70;86.50;;;;;;5028712;28;20053;-65
2022/12/11 16:24:27;;;;;;;0.00;0.00;;;2.60;86.50;;;;;;5028529;28;20045;-65
2022/12/11 16:26:53;;;;;;;0.10;0.10;;;2.60;86.50;;;;;;5028030;28;20384;-66
2022/12/11 16:29:18;;;;;;;0.00;0.00;;;2.60;86.60;;;;;;5028504;28;20159;-67
2022/12/11 16:31:44;;;;;;;0.00;0.00;;;2.60;86.70;;;;;;5031027;28;20056;-66
2022/12/11 16:34:09;;;;;;;0.00;0.00;;;2.70;86.80;;;;;;5031739;28;20052;-66
2022/12/11 16:36:35;;;;;;;0.00;0.00;;;2.60;86.80;;;;;;5045284;28;20049;-66
2022/12/11 16:39:00;;;;;;;0.00;0.00;;;2.60;86.80;;;;;;5051774;28;20483;-66
2022/12/11 16:41:26;;;;;;;0.10;0.10;;;2.60;86.70;;;;;;5051448;28;20041;-66
2022/12/11 16:43:53;;;;;;;0.00;0.00;;;2.60;86.70;;;;;;5052219;28;20140;-66
2022/12/11 16:46:20;;;;;;;0.05;0.05;;;2.60;86.60;;;;;;5052251;28;20415;-67
2022/12/11 16:48:46;;;;;;;7.88;1.17;;;2.50;86.60;;;;;;5054065;28;20045;-67
2022/12/11 16:51:12;;;;;;;0.75;0.75;;;2.40;86.90;;;;;;5053405;28;20055;-65
2022/12/11 16:53:37;;;;;;;0.00;0.00;;;2.40;87.00;;;;;;5051817;28;20033;-66
2022/12/11 16:56:04;;;;;;;0.00;0.00;;;2.40;87.10;;;;;;5051434;28;20041;-67
2022/12/11 16:58:30;;;;;;;0.00;0.00;;;2.40;87.20;;;;;;5033912;28;20110;-66
2022/12/11 17:01:00;;;;;;;0.32;0.32;;;2.40;87.30;;;;;;5051306;28;20041;-67
2022/12/11 17:03:30;;;;;;;0.03;0.03;;;2.40;87.20;;;;;;5051271;28;20081;-67
2022/12/11 17:05:56;;;;;;;0.73;0.70;;;2.40;87.40;;;;;;5017138;28;20099;-65
2022/12/11 17:08:23;;;;;;;0.35;0.35;;;2.40;87.40;;;;;;5051130;28;20053;-67
2022/12/11 17:10:48;;;;;;;0.17;0.17;;;2.30;87.50;;;;;;5051435;28;20068;-66
2022/12/11 17:13:14;;;;;;;0.00;0.00;;;2.40;87.60;;;;;;5051250;28;20479;-65
2022/12/11 17:15:41;;;;;;;0.00;0.00;;;2.40;87.60;;;;;;5033034;28;20056;-65
2022/12/11 17:18:07;;;;;;;0.00;0.00;;;2.40;87.70;;;;;;5051043;28;20043;-66
2022/12/11 17:20:32;;;;;;;0.00;0.00;;;2.50;87.70;;;;;;5050965;28;20045;-66
2022/12/11 17:22:59;;;;;;;0.00;0.00;;;2.40;87.50;;;;;;5050968;28;20116;-66
2022/12/11 17:25:24;;;;;;;0.28;0.28;;;2.40;87.70;;;;;;5050863;28;20150;-66
2022/12/11 17:27:50;;;;;;;0.10;0.10;;;2.40;87.60;;;;;;5050959;28;20041;-66
2022/12/11 17:30:15;;;;;;;0.00;0.00;;;2.40;87.80;;;;;;5032994;28;20045;-65
2022/12/11 17:32:41;;;;;;;0.00;0.00;;;2.40;87.80;;;;;;5050665;28;20045;-66
2022/12/11 17:35:07;;;;;;;1.95;1.35;;;2.40;87.80;;;;;;5050271;28;20052;-66
2022/12/11 17:37:33;;;;;;;0.30;0.30;;;2.40;87.80;;;;;;5050498;28;20048;-66
2022/12/11 17:39:58;;;;;;;0.00;0.00;;;2.40;87.90;;;;;;5050771;28;20045;-66
2022/12/11 17:42:24;;;;;;;0.00;0.00;;;2.40;87.90;;;;;;5049396;28;20067;-66
2022/12/11 17:44:50;;;;;;;0.00;0.00;;;2.40;87.90;;;;;;5050606;28;20049;-66
2022/12/11 17:47:15;;;;;;;0.00;0.00;;;2.50;87.90;;;;;;5049964;28;20407;-66
2022/12/11 17:49:41;;;;;;;0.00;0.00;;;2.40;87.80;;;;;;5050547;28;20202;-66
2022/12/11 17:52:07;;;;;;;0.00;0.00;;;2.40;87.70;;;;;;5050483;28;20052;-65
2022/12/11 17:54:33;;;;;;;0.40;0.40;;;2.40;87.90;;;;;;5032141;28;20045;-66
2022/12/11 17:56:59;;;;;;;0.05;0.05;;;2.40;87.90;;;;;;5032209;28;20132;-65
2022/12/11 17:59:24;;;;;;;0.00;0.00;;;2.40;87.90;;;;;;5016001;28;20190;-68
2022/12/11 18:01:50;;;;;;;0.00;0.00;;;2.40;87.90;;;;;;5050077;28;20109;-66
2022/12/11 18:04:15;;;;;;;0.10;0.10;;;2.40;88.00;;;;;;5050189;28;20130;-66
2022/12/11 18:06:41;;;;;;;1.35;0.95;;;2.50;88.00;;;;;;5050259;28;20060;-66
2022/12/11 18:09:07;;;;;;;0.00;0.00;;;2.40;87.90;;;;;;5049908;28;20045;-65
2022/12/11 18:11:33;;;;;;;0.08;0.08;;;2.40;88.00;;;;;;5050138;28;20032;-66
2022/12/11 18:13:58;;;;;;;0.38;0.38;;;2.40;88.00;;;;;;5050067;28;20128;-66
2022/12/11 18:16:36;;;;;;;0.47;0.47;;;2.40;87.90;;;;;;5049880;28;20037;-66
2022/12/11 18:19:04;;;;;;;0.10;0.10;;;2.40;87.90;;;;;;5049678;28;20487;-66
2022/12/11 18:21:32;;;;;;;0.00;0.00;;;2.40;88.00;;;;;;5049969;28;20416;-65
2022/12/11 18:23:59;;;;;;;0.00;0.00;;;2.30;88.00;;;;;;5049992;28;20041;-65
2022/12/11 18:26:25;;;;;;;0.00;0.00;;;2.30;87.60;;;;;;5015563;28;20147;-65
2022/12/11 18:28:52;;;;;;;0.10;0.10;;;2.20;87.90;;;;;;5049775;28;20048;-66
2022/12/11 18:31:18;;;;;;;0.08;0.08;;;2.30;88.10;;;;;;5049433;28;20040;-65
2022/12/11 18:33:45;;;;;;;0.00;0.00;;;2.40;88.30;;;;;;5068928;28;20041;-66
2022/12/11 18:36:13;;;;;;;0.85;0.85;;;2.50;88.40;;;;;;5069216;28;20060;-67
2022/12/11 18:38:40;;;;;;;16.17;1.10;;;2.50;88.50;;;;;;5069386;28;20044;-66
2022/12/11 18:41:08;;;;;;;0.88;0.88;;;2.60;88.60;;;;;;5051948;28;20049;-65
2022/12/11 18:43:34;;;;;;;0.00;0.00;;;3.00;89.40;;;;;;5069497;28;20535;-66
2022/12/11 18:46:04;;;;;;;0.00;0.00;;;3.40;89.50;;;;;;5069631;28;20044;-66
2022/12/11 18:48:29;;;;;;;0.10;0.10;;;3.40;88.90;;;;;;5051944;28;20569;-67
2022/12/11 18:50:55;;;;;;;0.32;0.32;;;3.20;88.50;;;;;;5069113;28;20051;-67
2022/12/11 18:53:20;;;;;;;0.00;0.00;;;3.10;88.30;;;;;;5068864;28;20760;-67
2022/12/11 18:55:47;;;;;;;0.10;0.10;;;3.10;88.10;;;;;;5069373;28;20501;-67
2022/12/11 18:58:16;;;;;;;0.10;0.10;;;3.00;88.00;;;;;;5068871;28;20042;-69
2022/12/11 19:00:43;;;;;;;0.00;0.00;;;2.90;87.80;;;;;;5067897;28;20071;-67
2022/12/11 19:03:10;;;;;;;0.85;0.85;;;2.90;87.80;;;;;;5051208;28;20439;-65
2022/12/11 19:05:39;;;;;;;0.00;0.00;;;3.00;88.40;;;;;;5068583;28;20074;-65
2022/12/11 19:08:04;;;;;;;0.10;0.10;;;2.90;88.20;;;;;;5034320;28;20048;-65
2022/12/11 19:10:30;;;;;;;0.00;0.00;;;2.80;88.00;;;;;;5068921;28;20058;-65
2022/12/11 19:12:55;;;;;;;0.00;0.00;;;2.70;87.80;;;;;;5066024;28;20063;-65
2022/12/11 19:15:21;;;;;;;0.00;0.00;;;2.70;87.80;;;;;;5031995;28;20077;-65
2022/12/11 19:17:50;;;;;;;0.08;0.08;;;2.70;87.70;;;;;;5022636;28;20553;-66
2022/12/11 19:20:16;;;;;;;0.00;0.00;;;2.60;87.70;;;;;;5044758;28;20136;-67
2022/12/11 19:22:41;;;;;;;0.00;0.00;;;2.60;87.60;;;;;;5048070;28;20534;-66
2022/12/11 19:25:07;;;;;;;0.10;0.10;;;2.50;87.50;;;;;;5062033;28;20033;-67
2022/12/11 19:27:32;;;;;;;0.00;0.00;;;2.50;87.50;;;;;;5026686;28;20068;-64
2022/12/11 19:29:58;;;;;;;0.00;0.00;;;2.50;87.50;;;;;;5034492;28;20056;-65
2022/12/11 19:32:24;;;;;;;0.00;0.00;;;2.50;87.50;;;;;;5044511;28;20037;-67
2022/12/11 19:34:54;;;;;;;0.10;0.10;;;2.40;87.50;;;;;;5009000;28;20538;-65
2022/12/11 19:37:20;;;;;;;0.10;0.10;;;2.50;87.60;;;;;;5026762;28;20052;-66
2022/12/11 19:39:45;;;;;;;0.35;0.35;;;2.50;87.70;;;;;;5037639;28;20060;-66
2022/12/11 19:42:11;;;;;;;0.00;0.00;;;2.40;87.50;;;;;;5045794;28;20049;-66
2022/12/11 19:44:36;;;;;;;0.00;0.00;;;2.40;87.60;;;;;;5043533;28;20387;-65
2022/12/11 19:47:02;;;;;;;0.00;0.00;;;2.40;87.60;;;;;;5046055;28;20403;-65
2022/12/11 19:49:28;;;;;;;0.00;0.00;;;2.50;87.60;;;;;;5035932;28;20048;-66
2022/12/11 19:51:53;;;;;;;0.00;0.00;;;2.40;87.50;;;;;;5034190;28;20080;-66
2022/12/11 19:54:19;;;;;;;0.00;0.00;;;2.40;87.30;;;;;;5059199;28;20049;-66
2022/12/11 19:56:44;;;;;;;0.00;0.00;;;2.30;87.50;;;;;;5042688;28;20044;-66
2022/12/11 19:59:14;;;;;;;0.03;0.03;;;2.30;87.50;;;;;;5052605;28;20037;-65
2022/12/11 20:01:40;;;;;;;0.00;0.00;;;2.30;87.60;;;;;;5017242;28;20829;-65
2022/12/11 20:04:11;;;;;;;0.00;0.00;;;2.30;87.70;;;;;;5041311;28;20048;-66
2022/12/11 20:06:39;;;;;;;0.08;0.08;;;2.30;87.70;;;;;;5047453;28;20041;-65
2022/12/11 20:09:09;;;;;;;0.00;0.00;;;2.30;87.80;;;;;;5049338;28;20060;-65
2022/12/11 20:11:35;;;;;;;0.10;0.10;;;2.30;87.90;;;;;;5049370;28;20049;-65
2022/12/11 20:14:01;;;;;;;0.00;0.00;;;2.30;88.00;;;;;;5048950;28;20037;-65
2022/12/11 20:16:27;;;;;;;0.00;0.00;;;2.30;88.00;;;;;;5049351;28;20103;-65
2022/12/11 20:18:54;;;;;;;0.00;0.00;;;2.40;88.10;;;;;;5050528;28;20040;-65
2022/12/11 20:21:20;;;;;;;0.10;0.10;;;2.30;88.00;;;;;;5050676;28;20053;-65
2022/12/11 20:23:46;;;;;;;0.00;0.00;;;2.20;87.80;;;;;;5050009;28;20056;-65
2022/12/11 20:26:17;;;;;;;0.00;0.00;;;2.20;88.00;;;;;;5049986;28;20067;-65
2022/12/11 20:28:46;;;;;;;0.10;0.10;;;2.20;87.90;;;;;;5059543;28;20500;-65
2022/12/11 20:31:14;;;;;;;0.00;0.00;;;2.20;88.10;;;;;;5052433;28;20596;-65
2022/12/11 20:33:40;;;;;;;1.17;1.13;;;2.20;88.10;;;;;;5069961;28;20044;-65
2022/12/11 20:36:07;;;;;;;0.00;0.00;;;2.20;88.10;;;;;;5070542;28;20056;-65
2022/12/11 20:38:33;;;;;;;0.00;0.00;;;2.30;88.20;;;;;;5071883;28;20047;-65
2022/12/11 20:40:59;;;;;;;0.35;0.35;;;2.30;88.20;;;;;;5071559;28;20414;-65
2022/12/11 20:43:24;;;;;;;0.10;0.10;;;2.20;88.20;;;;;;5071843;28;20048;-65
2022/12/11 20:45:50;;;;;;;0.00;0.00;;;2.20;88.20;;;;;;5072066;28;20048;-65
2022/12/11 20:48:16;;;;;;;0.00;0.00;;;2.30;88.20;;;;;;5053724;28;20052;-65
2022/12/11 20:50:41;;;;;;;0.00;0.00;;;2.30;88.20;;;;;;5072059;28;20061;-65
2022/12/11 20:53:07;;;;;;;0.00;0.00;;;2.30;88.20;;;;;;5071451;28;20074;-65
2022/12/11 20:55:33;;;;;;;0.00;0.00;;;2.30;88.20;;;;;;5053652;28;20044;-65
2022/12/11 20:57:58;;;;;;;0.00;0.00;;;2.30;88.20;;;;;;5053765;28;20037;-65
2022/12/11 21:00:24;;;;;;;0.05;0.05;;;2.30;88.20;;;;;;5071754;28;20595;-65
2022/12/11 21:02:50;;;;;;;0.00;0.00;;;2.30;88.10;;;;;;5071008;28;20055;-65
2022/12/11 21:05:16;;;;;;;0.00;0.00;;;2.30;88.10;;;;;;5071349;28;20406;-65
2022/12/11 21:07:41;;;;;;;0.03;0.03;;;2.20;88.10;;;;;;5071584;28;20077;-65
2022/12/11 21:10:07;;;;;;;0.00;0.00;;;2.20;88.00;;;;;;5036895;28;20696;-65
2022/12/11 21:12:33;;;;;;;0.05;0.05;;;2.20;88.00;;;;;;5053465;28;20045;-65
2022/12/11 21:14:58;;;;;;;0.00;0.00;;;2.20;87.90;;;;;;5053124;28;20045;-65
2022/12/11 21:17:24;;;;;;;0.00;0.00;;;2.10;87.90;;;;;;5070755;28;20041;-65
2022/12/11 21:19:50;;;;;;;0.10;0.10;;;2.10;87.90;;;;;;5071149;28;20376;-65
2022/12/11 21:22:16;;;;;;;0.00;0.00;;;2.10;87.90;;;;;;5069550;28;20149;-65
2022/12/11 21:24:41;;;;;;;0.00;0.00;;;2.10;87.90;;;;;;5069933;28;20049;-64
2022/12/11 21:27:08;;;;;;;0.00;0.00;;;2.00;87.90;;;;;;5051987;28;20044;-64
2022/12/11 21:29:34;;;;;;;0.00;0.00;;;2.00;87.80;;;;;;5070061;28;20066;-65
2022/12/11 21:32:00;;;;;;;0.00;0.00;;;2.00;87.90;;;;;;5052555;28;20052;-65
2022/12/11 21:34:26;;;;;;;0.00;0.00;;;2.00;87.90;;;;;;5070127;28;20519;-64
2022/12/11 21:36:55;;;;;;;0.00;0.00;;;2.00;87.90;;;;;;5070300;28;20080;-64
2022/12/11 21:39:21;;;;;;;0.00;0.00;;;2.00;87.80;;;;;;5070107;28;20037;-65
2022/12/11 21:41:47;;;;;;;0.10;0.10;;;1.90;87.90;;;;;;5070477;28;20078;-65
2022/12/11 21:44:13;;;;;;;7.03;1.00;;;1.90;87.80;;;;;;5052120;28;20048;-65
2022/12/11 21:46:38;;;;;;;0.05;0.05;;;1.90;87.80;;;;;;5070109;28;20051;-65
2022/12/11 21:49:04;;;;;;;0.00;0.00;;;1.90;87.90;;;;;;5070129;28;20040;-65
2022/12/11 21:51:32;;;;;;;0.00;0.00;;;1.90;87.90;;;;;;5069934;28;20070;-65
2022/12/11 21:53:58;;;;;;;0.10;0.10;;;1.90;87.90;;;;;;5035394;28;20048;-65
2022/12/11 21:56:26;;;;;;;0.00;0.00;;;1.90;87.90;;;;;;5069975;28;20087;-64
2022/12/11 21:58:53;;;;;;;0.10;0.10;;;1.90;87.80;;;;;;5070124;28;20040;-64
2022/12/11 22:01:32;;;;;;;0.03;0.03;;;1.80;87.80;;;;;;5069786;28;20040;-65
2022/12/11 22:03:58;;;;;;;0.00;0.00;;;1.80;87.80;;;;;;5069720;28;20049;-65
2022/12/11 22:06:24;;;;;;;0.00;0.00;;;1.90;87.80;;;;;;5069570;28;20076;-65
2022/12/11 22:08:49;;;;;;;0.00;0.00;;;1.80;87.80;;;;;;5069895;28;20075;-65
2022/12/11 22:11:21;;;;;;;0.00;0.00;;;1.90;87.80;;;;;;5069773;28;20076;-65
2022/12/11 22:13:46;;;;;;;0.00;0.00;;;1.80;87.80;;;;;;5069558;28;20052;-65
2022/12/11 22:16:12;;;;;;;0.00;0.00;;;1.80;87.70;;;;;;5069582;28;20044;-66
2022/12/11 22:18:38;;;;;;;0.05;0.05;;;1.70;87.70;;;;;;5069403;28;20036;-65
2022/12/11 22:21:03;;;;;;;0.00;0.00;;;1.70;87.60;;;;;;5051522;28;20036;-65
2022/12/11 22:23:29;;;;;;;0.00;0.00;;;1.80;87.60;;;;;;5069781;28;20061;-65
2022/12/11 22:25:55;;;;;;;0.10;0.10;;;1.70;87.60;;;;;;5051684;28;20102;-65
2022/12/11 22:28:21;;;;;;;0.00;0.00;;;1.70;87.50;;;;;;5068860;28;20063;-65
2022/12/11 22:30:47;;;;;;;0.10;0.10;;;1.60;87.50;;;;;;5068987;28;20047;-65
2022/12/11 22:33:12;;;;;;;0.00;0.00;;;1.60;87.30;;;;;;5051641;28;20410;-65
2022/12/11 22:35:38;;;;;;;0.20;0.20;;;1.50;87.30;;;;;;5069288;28;20052;-65
2022/12/11 22:38:04;;;;;;;0.15;0.15;;;1.50;87.10;;;;;;5069214;28;20037;-65
2022/12/11 22:40:29;;;;;;;0.10;0.10;;;1.40;87.10;;;;;;5069326;28;20040;-65
2022/12/11 22:42:55;;;;;;;0.00;0.00;;;1.40;87.00;;;;;;5068992;28;20040;-65
2022/12/11 22:45:21;;;;;;;0.00;0.00;;;1.40;87.10;;;;;;5051449;28;20056;-65
2022/12/11 22:47:47;;;;;;;0.00;0.00;;;1.40;87.10;;;;;;5034829;28;20052;-65
2022/12/11 22:50:14;;;;;;;0.00;0.00;;;1.30;87.00;;;;;;5069109;28;20398;-65
2022/12/11 22:52:40;;;;;;;0.00;0.00;;;1.30;87.00;;;;;;5068902;28;20055;-66
2022/12/11 22:55:07;;;;;;;0.00;0.00;;;1.20;87.00;;;;;;5068754;28;20063;-65
2022/12/11 22:57:34;;;;;;;0.10;0.10;;;1.20;87.00;;;;;;5069168;28;20044;-65
2022/12/11 23:00:00;;;;;;;0.00;0.00;;;1.20;87.00;;;;;;5068837;28;20047;-65
2022/12/11 23:02:25;;;;;;;0.00;0.00;;;1.20;86.90;;;;;;5068840;28;20036;-65
2022/12/11 23:04:51;;;;;;;0.00;0.00;;;1.20;87.00;;;;;;5068662;28;20037;-65
2022/12/11 23:07:17;;;;;;;0.10;0.10;;;1.20;87.00;;;;;;5068883;28;20135;-65
2022/12/11 23:09:42;;;;;;;0.00;0.00;;;1.20;87.00;;;;;;5069039;28;20490;-65
2022/12/11 23:12:08;;;;;;;0.00;0.00;;;1.20;87.10;;;;;;5068813;28;20072;-65
2022/12/11 23:14:33;;;;;;;0.00;0.00;;;1.10;87.10;;;;;;5068884;28;20044;-65
2022/12/11 23:16:59;;;;;;;0.00;0.00;;;1.20;87.10;;;;;;5033636;28;20105;-65
2022/12/11 23:19:25;;;;;;;0.00;0.00;;;1.10;87.10;;;;;;5068880;28;20080;-65
2022/12/11 23:21:50;;;;;;;0.00;0.00;;;1.10;87.10;;;;;;5050735;28;20131;-65
2022/12/11 23:24:16;;;;;;;0.00;0.00;;;1.10;87.10;;;;;;5050851;28;20049;-65
2022/12/11 23:26:42;;;;;;;0.00;0.00;;;1.00;87.10;;;;;;5050734;28;20478;-64
2022/12/11 23:29:07;;;;;;;1.27;1.20;;;1.10;87.10;;;;;;5068607;28;20119;-64
2022/12/11 23:31:33;;;;;;;0.00;0.00;;;1.10;87.10;;;;;;5068438;28;20075;-65
2022/12/11 23:33:59;;;;;;;0.00;0.00;;;1.10;87.10;;;;;;5050247;28;20479;-65
2022/12/11 23:36:25;;;;;;;0.00;0.00;;;1.00;87.00;;;;;;5068410;28;20060;-65
2022/12/11 23:38:52;;;;;;;0.20;0.20;;;1.00;87.00;;;;;;5050417;28;20325;-65
2022/12/11 23:41:18;;;;;;;0.00;0.00;;;1.10;87.00;;;;;;5070699;28;20044;-65
2022/12/11 23:43:43;;;;;;;0.00;0.00;;;1.10;87.00;;;;;;5072805;28;20441;-65
2022/12/11 23:46:15;;;;;;;0.00;0.00;;;1.00;87.00;;;;;;5072680;28;20056;-65
2022/12/11 23:48:41;;;;;;;0.10;0.10;;;1.00;86.90;;;;;;5072352;28;20598;-65
2022/12/11 23:51:10;;;;;;;0.00;0.00;;;1.00;86.80;;;;;;5072496;28;20076;-65
2022/12/11 23:53:37;;;;;;;0.00;0.00;;;1.00;86.70;;;;;;5054209;28;20053;-65
2022/12/11 23:56:11;;;;;;;0.10;0.10;;;1.00;86.70;;;;;;5072279;28;20055;-65
2022/12/11 23:58:38;;;;;;;0.00;0.00;;;1.00;86.80;;;;;;5071976;28;20036;-65
